Time;durP1;ratioP1;P1;durP2;ratioP2;P2;SDS_P1;SDS_P2;PMS_P1;PMS_P2;Temp;Humidity;BMP_temperature;BMP_pressure;BME280_temperature;BME280_humidity;BME280_pressure;Samples;Min_cycle;Max_cycle;Signal;HPM_P1;HPM_P2
2020/12/10 00:01:15;;;;;;;;;;;;;;;;;;5094856;28;20362;-74
2020/12/10 00:03:41;;;;;;;;;;;;;;;;;;5095221;28;20293;-73
2020/12/10 00:06:08;;;;;;;;;;;;;;;;;;5095124;28;19915;-75
2020/12/10 00:08:34;;;;;;;;;;;;;;;;;;5094731;28;19963;-75
2020/12/10 00:11:00;;;;;;;;;;;;;;;;;;5094947;28;20471;-75
2020/12/10 00:13:26;;;;;;;;;;;;;;;;;;5094970;28;20290;-75
2020/12/10 00:15:52;;;;;;;;;;;;;;;;;;5094915;28;19912;-74
2020/12/10 00:18:18;;;;;;;;;;;;;;;;;;5094674;28;19931;-75
2020/12/10 00:20:44;;;;;;;;;;;;;;;;;;5094610;28;20354;-75
2020/12/10 00:23:10;;;;;;;;;;;;;;;;;;5094840;28;20270;-75
2020/12/10 00:25:36;;;;;;;;;;;;;;;;;;5094792;28;19915;-79
2020/12/10 00:28:02;;;;;;;;;;;;;;;;;;5094451;28;19908;-75
2020/12/10 00:30:28;;;;;;;;;;;;;;;;;;5094949;28;19942;-75
2020/12/10 00:32:54;;;;;;;;;;;;;;;;;;5094443;28;19912;-75
2020/12/10 00:35:20;;;;;;;;;;;;;;;;;;5094595;28;19908;-75
2020/12/10 00:37:46;;;;;;;;;;;;;;;;;;5094306;28;20022;-75
2020/12/10 00:40:12;;;;;;;;;;;;;;;;;;5093285;28;19908;-75
2020/12/10 00:42:38;;;;;;;;;;;;;;;;;;5092150;28;19924;-75
2020/12/10 00:45:05;;;;;;;;;;;;;;;;;;5094836;28;19931;-75
2020/12/10 00:47:31;;;;;;;;;;;;;;;;;;5094484;28;19908;-75
2020/12/10 00:49:58;;;;;;;;;;;;;;;;;;5094377;28;19916;-75
2020/12/10 00:52:24;;;;;;;;;;;;;;;;;;5094184;28;19908;-75
2020/12/10 00:54:50;;;;;;;;;;;;;;;;;;5094160;28;20274;-75
2020/12/10 00:57:16;;;;;;;;;;;;;;;;;;5094096;28;19955;-75
2020/12/10 00:59:42;;;;;;;;;;;;;;;;;;5094061;28;19908;-79
2020/12/10 01:02:08;;;;;;;;;;;;;;;;;;5094326;28;20308;-78
2020/12/10 01:04:34;;;;;;;;;;;;;;;;;;5093990;28;19912;-74
2020/12/10 01:07:00;;;;;;;;;;;;;;;;;;5094299;28;19916;-74
2020/12/10 01:09:26;;;;;;;;;;;;;;;;;;5094152;28;20362;-75
2020/12/10 01:11:52;;;;;;;;;;;;;;;;;;5094283;28;20393;-74
2020/12/10 01:14:19;;;;;;;;;;;;;;;;;;5094195;28;20395;-74
2020/12/10 01:16:45;;;;;;;;;;;;;;;;;;5094233;28;19919;-74
2020/12/10 01:19:11;;;;;;;;;;;;;;;;;;5094161;28;19909;-74
2020/12/10 01:21:37;;;;;;;;;;;;;;;;;;5093882;28;19908;-75
2020/12/10 01:24:03;;;;;;;;;;;;;;;;;;5093857;28;20339;-74
2020/12/10 01:26:30;;;;;;;;;;;;;;;;;;5093845;28;19961;-75
2020/12/10 01:28:56;;;;;;;;;;;;;;;;;;5094312;28;19916;-75
2020/12/10 01:31:22;;;;;;;;;;;;;;;;;;5093821;28;19908;-75
2020/12/10 01:33:48;;;;;;;;;;;;;;;;;;5094357;28;19908;-74
2020/12/10 01:36:14;;;;;;;;;;;;;;;;;;5093751;28;19921;-75
2020/12/10 01:38:40;;;;;;;;;;;;;;;;;;5093705;28;19915;-75
2020/12/10 01:41:06;;;;;;;;;;;;;;;;;;5093535;28;19919;-75
2020/12/10 01:43:32;;;;;;;;;;;;;;;;;;5094029;28;19916;-75
2020/12/10 01:45:58;;;;;;;;;;;;;;;;;;5093722;28;19961;-75
2020/12/10 01:48:24;;;;;;;;;;;;;;;;;;5093776;28;19973;-75
2020/12/10 01:50:50;;;;;;;;;;;;;;;;;;5093611;28;20285;-75
2020/12/10 01:53:16;;;;;;;;;;;;;;;;;;5095242;28;20389;-75
2020/12/10 01:55:42;;;;;;;;;;;;;;;;;;5097281;28;20362;-75
2020/12/10 01:58:08;;;;;;;;;;;;;;;;;;5097261;28;20359;-77
2020/12/10 02:00:34;;;;;;;;;;;;;;;;;;5097255;28;19912;-76
2020/12/10 02:03:00;;;;;;;;;;;;;;;;;;5097226;28;19908;-77
2020/12/10 02:05:26;;;;;;;;;;;;;;;;;;5097157;28;19915;-77
2020/12/10 02:07:52;;;;;;;;;;;;;;;;;;5097467;28;19908;-75
2020/12/10 02:10:18;;;;;;;;;;;;;;;;;;5097299;28;19916;-75
2020/12/10 02:12:44;;;;;;;;;;;;;;;;;;5097036;28;19912;-75
2020/12/10 02:15:11;;;;;;;;;;;;;;;;;;5097257;28;19908;-78
2020/12/10 02:17:37;;;;;;;;;;;;;;;;;;5097232;28;19912;-75
2020/12/10 02:20:03;;;;;;;;;;;;;;;;;;5097487;28;19908;-78
2020/12/10 02:22:29;;;;;;;;;;;;;;;;;;5096840;28;20011;-74
2020/12/10 02:24:55;;;;;;;;;;;;;;;;;;5097325;28;19958;-75
2020/12/10 02:27:21;;;;;;;;;;;;;;;;;;5096769;28;19915;-73
2020/12/10 02:29:47;;;;;;;;;;;;;;;;;;5096602;28;19916;-74
2020/12/10 02:32:13;;;;;;;;;;;;;;;;;;5096697;28;20349;-78
2020/12/10 02:34:39;;;;;;;;;;;;;;;;;;5096604;28;20269;-73
2020/12/10 02:37:05;;;;;;;;;;;;;;;;;;5096571;28;19912;-75
2020/12/10 02:39:31;;;;;;;;;;;;;;;;;;5097076;28;19909;-74
2020/12/10 02:41:57;;;;;;;;;;;;;;;;;;5096242;28;20289;-74
2020/12/10 02:44:23;;;;;;;;;;;;;;;;;;5096731;28;20358;-78
2020/12/10 02:46:49;;;;;;;;;;;;;;;;;;5096368;28;20358;-78
2020/12/10 02:49:15;;;;;;;;;;;;;;;;;;5096306;28;20415;-74
2020/12/10 02:51:41;;;;;;;;;;;;;;;;;;5096318;28;20277;-74
2020/12/10 02:54:07;;;;;;;;;;;;;;;;;;5096218;28;20270;-78
2020/12/10 02:56:34;;;;;;;;;;;;;;;;;;5096151;28;20099;-74
2020/12/10 02:59:00;;;;;;;;;;;;;;;;;;5096135;28;20022;-76
2020/12/10 03:01:26;;;;;;;;;;;;;;;;;;5096097;28;19914;-74
2020/12/10 03:03:52;;;;;;;;;;;;;;;;;;5095594;28;19945;-74
2020/12/10 03:06:18;;;;;;;;;;;;;;;;;;5096015;28;19915;-74
2020/12/10 03:08:44;;;;;;;;;;;;;;;;;;5095879;28;19922;-74
2020/12/10 03:11:10;;;;;;;;;;;;;;;;;;5095805;28;19961;-77
2020/12/10 03:13:36;;;;;;;;;;;;;;;;;;5095803;28;19954;-77
2020/12/10 03:16:02;;;;;;;;;;;;;;;;;;5096410;28;19908;-75
2020/12/10 03:18:28;;;;;;;;;;;;;;;;;;5095781;28;19908;-74
2020/12/10 03:20:54;;;;;;;;;;;;;;;;;;5096145;28;19912;-73
2020/12/10 03:23:20;;;;;;;;;;;;;;;;;;5096294;28;19908;-75
2020/12/10 03:25:46;;;;;;;;;;;;;;;;;;5095654;28;20273;-73
2020/12/10 03:28:12;;;;;;;;;;;;;;;;;;5095513;28;20362;-73
2020/12/10 03:30:38;;;;;;;;;;;;;;;;;;5095428;28;19916;-73
2020/12/10 03:33:04;;;;;;;;;;;;;;;;;;5095728;28;19959;-72
2020/12/10 03:35:30;;;;;;;;;;;;;;;;;;5095736;28;19909;-72
2020/12/10 03:37:59;;;;;;;;;;;;;;;;;;5095720;28;19908;-73
2020/12/10 03:40:25;;;;;;;;;;;;;;;;;;5095357;28;19915;-72
2020/12/10 03:42:51;;;;;;;;;;;;;;;;;;5095181;28;19927;-70
2020/12/10 03:45:18;;;;;;;;;;;;;;;;;;5095254;28;19915;-71
2020/12/10 03:47:44;;;;;;;;;;;;;;;;;;5095200;28;19961;-69
2020/12/10 03:50:10;;;;;;;;;;;;;;;;;;5095093;28;20387;-72
2020/12/10 03:52:36;;;;;;;;;;;;;;;;;;5095422;28;19918;-72
2020/12/10 03:55:02;;;;;;;;;;;;;;;;;;5096164;28;20287;-73
2020/12/10 03:57:28;;;;;;;;;;;;;;;;;;5095283;28;20254;-72
2020/12/10 03:59:54;;;;;;;;;;;;;;;;;;5094910;28;20424;-73
2020/12/10 04:02:20;;;;;;;;;;;;;;;;;;5094846;28;19908;-73
2020/12/10 04:04:46;;;;;;;;;;;;;;;;;;5095481;28;19908;-73
2020/12/10 04:07:12;;;;;;;;;;;;;;;;;;5094762;28;19908;-73
2020/12/10 04:09:38;;;;;;;;;;;;;;;;;;5094714;28;19916;-72
2020/12/10 04:12:04;;;;;;;;;;;;;;;;;;5094786;28;19909;-73
2020/12/10 04:14:30;;;;;;;;;;;;;;;;;;5094718;28;20373;-73
2020/12/10 04:16:56;;;;;;;;;;;;;;;;;;5094308;28;19947;-73
2020/12/10 04:19:22;;;;;;;;;;;;;;;;;;5076458;28;20323;-73
2020/12/10 04:21:48;;;;;;;;;;;;;;;;;;5094602;28;20370;-73
2020/12/10 04:24:14;;;;;;;;;;;;;;;;;;5094528;28;19912;-73
2020/12/10 04:26:40;;;;;;;;;;;;;;;;;;5094536;28;19908;-72
2020/12/10 04:29:06;;;;;;;;;;;;;;;;;;5094400;28;19916;-73
2020/12/10 04:31:32;;;;;;;;;;;;;;;;;;5095019;28;19908;-73
2020/12/10 04:33:58;;;;;;;;;;;;;;;;;;5094395;28;19908;-73
2020/12/10 04:36:24;;;;;;;;;;;;;;;;;;5094949;28;19912;-73
2020/12/10 04:38:51;;;;;;;;;;;;;;;;;;5094357;28;19908;-72
2020/12/10 04:41:17;;;;;;;;;;;;;;;;;;5094290;28;20435;-73
2020/12/10 04:43:43;;;;;;;;;;;;;;;;;;5094620;28;19908;-73
2020/12/10 04:46:09;;;;;;;;;;;;;;;;;;5094524;28;19908;-72
2020/12/10 04:48:35;;;;;;;;;;;;;;;;;;5095229;28;20312;-72
2020/12/10 04:51:03;;;;;;;;;;;;;;;;;;5094121;28;19908;-73
2020/12/10 04:53:29;;;;;;;;;;;;;;;;;;5094077;28;19914;-72
2020/12/10 04:55:55;;;;;;;;;;;;;;;;;;5094061;28;19934;-73
2020/12/10 04:58:21;;;;;;;;;;;;;;;;;;5094036;28;19908;-73
2020/12/10 05:00:47;;;;;;;;;;;;;;;;;;5094070;28;19908;-73
2020/12/10 05:03:13;;;;;;;;;;;;;;;;;;5094135;28;19923;-72
2020/12/10 05:05:39;;;;;;;;;;;;;;;;;;5094615;28;19942;-72
2020/12/10 05:08:05;;;;;;;;;;;;;;;;;;5094040;28;19938;-72
2020/12/10 05:10:31;;;;;;;;;;;;;;;;;;5094529;28;19919;-74
2020/12/10 05:12:57;;;;;;;;;;;;;;;;;;5093914;28;19915;-73
2020/12/10 05:15:23;;;;;;;;;;;;;;;;;;5093901;28;19915;-73
2020/12/10 05:17:49;;;;;;;;;;;;;;;;;;5093865;28;19915;-73
2020/12/10 05:20:15;;;;;;;;;;;;;;;;;;5093869;28;19961;-73
2020/12/10 05:22:41;;;;;;;;;;;;;;;;;;5093892;28;19908;-73
2020/12/10 05:25:07;;;;;;;;;;;;;;;;;;5094132;28;19931;-73
2020/12/10 05:27:33;;;;;;;;;;;;;;;;;;5096699;28;19934;-73
2020/12/10 05:29:59;;;;;;;;;;;;;;;;;;5098057;28;20281;-72
2020/12/10 05:32:25;;;;;;;;;;;;;;;;;;5098368;28;20350;-73
2020/12/10 05:34:51;;;;;;;;;;;;;;;;;;5097774;28;20354;-73
2020/12/10 05:37:17;;;;;;;;;;;;;;;;;;5097740;28;19912;-73
2020/12/10 05:39:43;;;;;;;;;;;;;;;;;;5097687;28;19909;-73
2020/12/10 05:42:09;;;;;;;;;;;;;;;;;;5097440;28;19920;-73
2020/12/10 05:44:35;;;;;;;;;;;;;;;;;;5097617;28;19909;-73
2020/12/10 05:47:01;;;;;;;;;;;;;;;;;;5097557;28;19908;-72
2020/12/10 05:49:27;;;;;;;;;;;;;;;;;;5097433;28;19916;-72
2020/12/10 05:51:53;;;;;;;;;;;;;;;;;;5097407;28;19916;-72
2020/12/10 05:54:19;;;;;;;;;;;;;;;;;;5097341;28;19915;-73
2020/12/10 05:56:45;;;;;;;;;;;;;;;;;;5097942;28;19908;-72
2020/12/10 05:59:11;;;;;;;;;;;;;;;;;;5097261;28;20000;-73
2020/12/10 06:01:37;;;;;;;;;;;;;;;;;;5097803;28;19909;-72
2020/12/10 06:04:03;;;;;;;;;;;;;;;;;;5097205;28;19908;-72
2020/12/10 06:06:29;;;;;;;;;;;;;;;;;;5097423;28;19908;-72
2020/12/10 06:08:55;;;;;;;;;;;;;;;;;;5096976;28;19912;-72
2020/12/10 06:11:21;;;;;;;;;;;;;;;;;;5097369;28;19909;-72
2020/12/10 06:13:48;;;;;;;;;;;;;;;;;;5097270;28;19908;-72
2020/12/10 06:16:14;;;;;;;;;;;;;;;;;;5096021;28;19909;-72
2020/12/10 06:18:40;;;;;;;;;;;;;;;;;;5096968;28;19908;-71
2020/12/10 06:21:06;;;;;;;;;;;;;;;;;;5096814;28;19908;-72
2020/12/10 06:23:33;;;;;;;;;;;;;;;;;;5096838;28;19912;-71
2020/12/10 06:25:59;;;;;;;;;;;;;;;;;;5096639;28;19908;-71
2020/12/10 06:28:25;;;;;;;;;;;;;;;;;;5096558;28;20033;-72
2020/12/10 06:30:51;;;;;;;;;;;;;;;;;;5096669;28;19919;-74
2020/12/10 06:33:17;;;;;;;;;;;;;;;;;;5096576;28;19916;-71
2020/12/10 06:35:43;;;;;;;;;;;;;;;;;;5096651;28;19915;-71
2020/12/10 06:38:10;;;;;;;;;;;;;;;;;;5095785;28;19954;-73
2020/12/10 06:40:36;;;;;;;;;;;;;;;;;;5097054;28;20003;-74
2020/12/10 06:43:02;;;;;;;;;;;;;;;;;;5096252;28;19923;-72
2020/12/10 06:45:30;;;;;;;;;;;;;;;;;;5096318;28;19908;-72
2020/12/10 06:47:56;;;;;;;;;;;;;;;;;;5096350;28;20370;-71
2020/12/10 06:50:22;;;;;;;;;;;;;;;;;;5096553;28;19916;-72
2020/12/10 06:52:48;;;;;;;;;;;;;;;;;;5096558;28;19931;-73
2020/12/10 06:55:14;;;;;;;;;;;;;;;;;;5096766;28;20292;-72
2020/12/10 06:57:40;;;;;;;;;;;;;;;;;;5096133;28;20381;-73
2020/12/10 07:00:06;;;;;;;;;;;;;;;;;;5096393;28;20350;-72
2020/12/10 07:02:32;;;;;;;;;;;;;;;;;;5096091;28;19933;-69
2020/12/10 07:04:58;;;;;;;;;;;;;;;;;;5095972;28;20347;-69
2020/12/10 07:07:25;;;;;;;;;;;;;;;;;;5095934;28;19908;-70
2020/12/10 07:09:51;;;;;;;;;;;;;;;;;;5095871;28;19916;-70
2020/12/10 07:12:18;;;;;;;;;;;;;;;;;;5095855;28;19908;-70
2020/12/10 07:14:44;;;;;;;;;;;;;;;;;;5096064;28;19934;-77
2020/12/10 07:17:13;;;;;;;;;;;;;;;;;;5095789;28;19915;-70
2020/12/10 07:19:39;;;;;;;;;;;;;;;;;;5095707;28;19908;-69
2020/12/10 07:22:05;;;;;;;;;;;;;;;;;;5095621;28;19912;-71
2020/12/10 07:24:31;;;;;;;;;;;;;;;;;;5096272;28;19908;-70
2020/12/10 07:26:57;;;;;;;;;;;;;;;;;;5095844;28;19916;-70
2020/12/10 07:29:23;;;;;;;;;;;;;;;;;;5095410;28;19920;-75
2020/12/10 07:31:49;;;;;;;;;;;;;;;;;;5095582;28;19915;-72
2020/12/10 07:34:15;;;;;;;;;;;;;;;;;;5095506;28;19927;-71
2020/12/10 07:36:41;;;;;;;;;;;;;;;;;;5095481;28;19943;-70
2020/12/10 07:39:07;;;;;;;;;;;;;;;;;;5095228;28;20011;-76
2020/12/10 07:41:33;;;;;;;;;;;;;;;;;;5095268;28;19924;-69
2020/12/10 07:43:59;;;;;;;;;;;;;;;;;;5095712;28;19913;-71
2020/12/10 07:46:25;;;;;;;;;;;;;;;;;;5095279;28;19920;-71
2020/12/10 07:48:51;;;;;;;;;;;;;;;;;;5095248;28;19912;-71
2020/12/10 07:51:18;;;;;;;;;;;;;;;;;;5094582;28;19912;-72
2020/12/10 07:53:44;;;;;;;;;;;;;;;;;;5094847;28;19908;-71
2020/12/10 07:56:10;;;;;;;;;;;;;;;;;;5095618;28;19915;-72
2020/12/10 07:58:36;;;;;;;;;;;;;;;;;;5094975;28;19915;-72
2020/12/10 08:01:02;;;;;;;;;;;;;;;;;;5095537;28;19962;-72
2020/12/10 08:03:28;;;;;;;;;;;;;;;;;;5095194;28;19915;-71
2020/12/10 08:05:54;;;;;;;;;;;;;;;;;;5094878;28;20065;-76
2020/12/10 08:08:20;;;;;;;;;;;;;;;;;;5094769;28;19908;-73
2020/12/10 08:10:46;;;;;;;;;;;;;;;;;;5094689;28;19916;-72
2020/12/10 08:13:12;;;;;;;;;;;;;;;;;;5094664;28;19908;-72
2020/12/10 08:15:38;;;;;;;;;;;;;;;;;;5094683;28;20003;-72
2020/12/10 08:18:04;;;;;;;;;;;;;;;;;;5095221;28;19964;-72
2020/12/10 08:20:30;;;;;;;;;;;;;;;;;;5094625;28;20347;-72
2020/12/10 08:22:56;;;;;;;;;;;;;;;;;;5094637;28;19908;-73
2020/12/10 08:25:22;;;;;;;;;;;;;;;;;;5094502;28;19934;-73
2020/12/10 08:27:48;;;;;;;;;;;;;;;;;;5094486;28;19916;-72
2020/12/10 08:30:14;;;;;;;;;;;;;;;;;;5094454;28;19920;-72
2020/12/10 08:32:40;;;;;;;;;;;;;;;;;;5095031;28;19908;-72
2020/12/10 08:35:06;;;;;;;;;;;;;;;;;;5094362;28;19908;-72
2020/12/10 08:37:32;;;;;;;;;;;;;;;;;;5094304;28;19908;-72
2020/12/10 08:39:58;;;;;;;;;;;;;;;;;;5094168;28;19908;-73
2020/12/10 08:42:24;;;;;;;;;;;;;;;;;;5094113;28;19931;-72
2020/12/10 08:44:52;;;;;;;;;;;;;;;;;;5094315;28;19908;-73
2020/12/10 08:47:18;;;;;;;;;;;;;;;;;;5094153;28;20358;-72
2020/12/10 08:49:44;;;;;;;;;;;;;;;;;;5094041;28;19916;-72
2020/12/10 08:52:10;;;;;;;;;;;;;;;;;;5094057;28;19938;-73
2020/12/10 08:54:36;;;;;;;;;;;;;;;;;;5094050;28;19915;-72
2020/12/10 08:57:05;;;;;;;;;;;;;;;;;;5094135;28;19915;-72
2020/12/10 08:59:31;;;;;;;;;;;;;;;;;;5094035;28;20244;-72
2020/12/10 09:01:57;;;;;;;;;;;;;;;;;;5093675;28;20423;-70
2020/12/10 09:04:23;;;;;;;;;;;;;;;;;;5094274;28;20316;-76
2020/12/10 09:06:49;;;;;;;;;;;;;;;;;;5094291;28;20346;-76
2020/12/10 09:09:15;;;;;;;;;;;;;;;;;;5093887;28;20369;-69
2020/12/10 09:11:41;;;;;;;;;;;;;;;;;;5093910;28;19943;-69
2020/12/10 09:14:07;;;;;;;;;;;;;;;;;;5093975;28;19908;-70
2020/12/10 09:16:33;;;;;;;;;;;;;;;;;;5093810;28;19938;-69
2020/12/10 09:18:59;;;;;;;;;;;;;;;;;;5093823;28;19908;-72
2020/12/10 09:21:25;;;;;;;;;;;;;;;;;;5094369;28;19908;-69
2020/12/10 09:23:51;;;;;;;;;;;;;;;;;;5093836;28;19908;-70
2020/12/10 09:26:18;;;;;;;;;;;;;;;;;;5093775;28;19908;-71
2020/12/10 09:28:44;;;;;;;;;;;;;;;;;;5093711;28;19916;-80
2020/12/10 09:31:10;;;;;;;;;;;;;;;;;;5093666;28;19908;-73
2020/12/10 09:33:36;;;;;;;;;;;;;;;;;;5093816;28;19908;-69
2020/12/10 09:36:03;;;;;;;;;;;;;;;;;;5094087;28;20002;-69
2020/12/10 09:38:29;;;;;;;;;;;;;;;;;;5093682;28;19908;-68
2020/12/10 09:40:55;;;;;;;;;;;;;;;;;;5093730;28;20354;-69
2020/12/10 09:43:21;;;;;;;;;;;;;;;;;;5093628;28;19912;-69
2020/12/10 09:45:54;;;;;;;;;;;;;;;;;;5094249;28;19908;-69
2020/12/10 09:48:20;;;;;;;;;;;;;;;;;;5093692;28;19934;-69
2020/12/10 09:50:46;;;;;;;;;;;;;;;;;;5093778;28;20273;-69
2020/12/10 09:53:20;;;;;;;;;;;;;;;;;;5094389;28;19912;-76
2020/12/10 09:58:21;;;;;;;;;;;;;;;;;;5093894;28;20342;-69
2020/12/10 10:00:50;;;;;;;;;;;;;;;;;;5093481;28;20002;-69
2020/12/10 10:03:16;;;;;;;;;;;;;;;;;;5093471;28;19908;-69
2020/12/10 10:05:43;;;;;;;;;;;;;;;;;;5093357;28;19915;-69
2020/12/10 10:08:09;;;;;;;;;;;;;;;;;;5094026;28;20403;-69
2020/12/10 10:10:35;;;;;;;;;;;;;;;;;;5093631;28;20010;-71
2020/12/10 10:13:01;;;;;;;;;;;;;;;;;;5093630;28;20346;-75
2020/12/10 10:15:27;;;;;;;;;;;;;;;;;;5097013;28;19909;-74
2020/12/10 10:17:53;;;;;;;;;;;;;;;;;;5096989;28;19951;-71
2020/12/10 10:20:19;;;;;;;;;;;;;;;;;;5096854;28;19961;-71
2020/12/10 10:22:45;;;;;;;;;;;;;;;;;;5097115;28;19912;-71
2020/12/10 10:25:11;;;;;;;;;;;;;;;;;;5096757;28;19991;-71
2020/12/10 10:27:37;;;;;;;;;;;;;;;;;;5096951;28;20312;-70
2020/12/10 10:30:03;;;;;;;;;;;;;;;;;;5096650;28;20351;-70
2020/12/10 10:32:29;;;;;;;;;;;;;;;;;;5096764;28;20278;-71
2020/12/10 10:34:55;;;;;;;;;;;;;;;;;;5096625;28;20415;-71
2020/12/10 10:37:21;;;;;;;;;;;;;;;;;;5096839;28;19931;-71
2020/12/10 10:39:47;;;;;;;;;;;;;;;;;;5096777;28;19908;-70
2020/12/10 10:42:13;;;;;;;;;;;;;;;;;;5096341;28;20286;-70
2020/12/10 10:44:39;;;;;;;;;;;;;;;;;;5096703;28;20274;-70
2020/12/10 10:47:05;;;;;;;;;;;;;;;;;;5096368;28;19923;-71
2020/12/10 10:49:31;;;;;;;;;;;;;;;;;;5096829;28;20381;-67
2020/12/10 10:51:57;;;;;;;;;;;;;;;;;;5096303;28;19915;-70
2020/12/10 10:54:23;;;;;;;;;;;;;;;;;;5096277;28;19915;-70
2020/12/10 10:56:49;;;;;;;;;;;;;;;;;;5096208;28;19927;-70
2020/12/10 10:59:15;;;;;;;;;;;;;;;;;;5096173;28;19908;-71
2020/12/10 11:01:42;;;;;;;;;;;;;;;;;;5096376;28;19915;-71
2020/12/10 11:04:08;;;;;;;;;;;;;;;;;;5096725;28;19915;-73
2020/12/10 11:06:34;;;;;;;;;;;;;;;;;;5096099;28;19915;-72
2020/12/10 11:09:00;;;;;;;;;;;;;;;;;;5095924;28;19912;-73
2020/12/10 11:11:26;;;;;;;;;;;;;;;;;;5095993;28;20255;-70
2020/12/10 11:13:52;;;;;;;;;;;;;;;;;;5095923;28;20003;-74
2020/12/10 11:16:18;;;;;;;;;;;;;;;;;;5095902;28;20418;-74
2020/12/10 11:18:44;;;;;;;;;;;;;;;;;;5095757;28;19908;-76
2020/12/10 11:21:10;;;;;;;;;;;;;;;;;;5095747;28;19943;-75
2020/12/10 11:23:36;;;;;;;;;;;;;;;;;;5096027;28;20320;-74
2020/12/10 11:26:02;;;;;;;;;;;;;;;;;;5095677;28;19909;-78
2020/12/10 11:28:29;;;;;;;;;;;;;;;;;;5095487;28;20247;-74
2020/12/10 11:30:55;;;;;;;;;;;;;;;;;;5093344;28;19920;-73
2020/12/10 11:33:21;;;;;;;;;;;;;;;;;;5095328;28;19914;-73
2020/12/10 11:35:47;;;;;;;;;;;;;;;;;;5095375;28;19954;-74
2020/12/10 11:38:13;;;;;;;;;;;;;;;;;;5095342;28;19908;-74
2020/12/10 11:40:39;;;;;;;;;;;;;;;;;;5094772;28;19908;-72
2020/12/10 11:43:05;;;;;;;;;;;;;;;;;;5095059;28;19931;-73
2020/12/10 11:45:31;;;;;;;;;;;;;;;;;;5095447;28;20308;-75
2020/12/10 11:48:02;;;;;;;;;;;;;;;;;;5094847;28;20365;-71
2020/12/10 11:50:30;;;;;;;;;;;;;;;;;;5095639;28;19916;-71
2020/12/10 11:52:56;;;;;;;;;;;;;;;;;;5095056;28;19952;-71
2020/12/10 11:55:22;;;;;;;;;;;;;;;;;;5094821;28;19908;-81
2020/12/10 11:57:49;;;;;;;;;;;;;;;;;;5094970;28;19908;-72
2020/12/10 12:00:15;;;;;;;;;;;;;;;;;;5094881;28;19908;-73
2020/12/10 12:02:41;;;;;;;;;;;;;;;;;;5094826;28;19908;-72
2020/12/10 12:05:07;;;;;;;;;;;;;;;;;;5094857;28;19908;-72
2020/12/10 12:07:33;;;;;;;;;;;;;;;;;;5094869;28;19920;-70
2020/12/10 12:09:59;;;;;;;;;;;;;;;;;;5094371;28;19970;-70
2020/12/10 12:12:25;;;;;;;;;;;;;;;;;;5093977;28;19911;-70
2020/12/10 12:14:51;;;;;;;;;;;;;;;;;;5094684;28;19915;-70
2020/12/10 12:17:17;;;;;;;;;;;;;;;;;;5094241;28;19908;-73
2020/12/10 12:19:44;;;;;;;;;;;;;;;;;;5094511;28;19909;-73
2020/12/10 12:22:10;;;;;;;;;;;;;;;;;;5094509;28;19908;-70
2020/12/10 12:24:36;;;;;;;;;;;;;;;;;;5094114;28;20358;-73
2020/12/10 12:27:02;;;;;;;;;;;;;;;;;;5094287;28;19962;-67
2020/12/10 12:29:28;;;;;;;;;;;;;;;;;;5094380;28;19916;-71
2020/12/10 12:31:54;;;;;;;;;;;;;;;;;;5093870;28;19908;-74
2020/12/10 12:34:20;;;;;;;;;;;;;;;;;;5094160;28;19908;-67
2020/12/10 12:36:46;;;;;;;;;;;;;;;;;;5094320;28;19908;-65
2020/12/10 12:39:13;;;;;;;;;;;;;;;;;;5093864;28;19908;-66
2020/12/10 12:41:39;;;;;;;;;;;;;;;;;;5093863;28;19920;-65
2020/12/10 12:44:06;;;;;;;;;;;;;;;;;;5092393;28;19916;-66
2020/12/10 12:46:32;;;;;;;;;;;;;;;;;;5093835;28;19915;-65
2020/12/10 12:48:58;;;;;;;;;;;;;;;;;;5093887;28;20013;-66
2020/12/10 12:51:24;;;;;;;;;;;;;;;;;;5094136;28;19908;-67
2020/12/10 12:53:52;;;;;;;;;;;;;;;;;;5094248;28;19908;-67
2020/12/10 12:56:19;;;;;;;;;;;;;;;;;;5094094;28;20391;-67
2020/12/10 12:58:48;;;;;;;;;;;;;;;;;;5094135;28;19915;-66
2020/12/10 13:01:14;;;;;;;;;;;;;;;;;;5094041;28;20378;-66
2020/12/10 13:03:40;;;;;;;;;;;;;;;;;;5094284;28;19969;-67
2020/12/10 13:06:06;;;;;;;;;;;;;;;;;;5094366;28;19912;-67
2020/12/10 13:08:32;;;;;;;;;;;;;;;;;;5094094;28;19908;-68
2020/12/10 13:10:59;;;;;;;;;;;;;;;;;;5094279;28;19916;-68
2020/12/10 13:13:25;;;;;;;;;;;;;;;;;;5093947;28;19909;-66
2020/12/10 13:15:51;;;;;;;;;;;;;;;;;;5093999;28;19908;-67
2020/12/10 13:18:17;;;;;;;;;;;;;;;;;;5094031;28;19908;-67
2020/12/10 13:20:43;;;;;;;;;;;;;;;;;;5094188;28;19908;-66
2020/12/10 13:23:09;;;;;;;;;;;;;;;;;;5094498;28;19914;-64
2020/12/10 13:25:36;;;;;;;;;;;;;;;;;;5093856;28;19916;-64
2020/12/10 13:28:02;;;;;;;;;;;;;;;;;;5094465;28;19908;-63
2020/12/10 13:30:28;;;;;;;;;;;;;;;;;;5093786;28;19923;-64
2020/12/10 13:32:54;;;;;;;;;;;;;;;;;;5093792;28;19915;-64
2020/12/10 13:35:20;;;;;;;;;;;;;;;;;;5093769;28;19962;-64
2020/12/10 13:37:46;;;;;;;;;;;;;;;;;;5093803;28;19912;-65
2020/12/10 13:40:12;;;;;;;;;;;;;;;;;;5094325;28;19908;-72
2020/12/10 13:42:38;;;;;;;;;;;;;;;;;;5093574;28;19920;-65
2020/12/10 13:45:04;;;;;;;;;;;;;;;;;;5093686;28;19915;-71
2020/12/10 13:47:35;;;;;;;;;;;;;;;;;;5094195;28;19912;-71
2020/12/10 13:50:01;;;;;;;;;;;;;;;;;;5097694;28;19977;-65
2020/12/10 13:52:27;;;;;;;;;;;;;;;;;;5098128;28;20308;-65
2020/12/10 13:54:53;;;;;;;;;;;;;;;;;;5097446;28;20290;-71
2020/12/10 13:57:19;;;;;;;;;;;;;;;;;;5097178;28;20254;-64
2020/12/10 13:59:45;;;;;;;;;;;;;;;;;;5097054;28;19919;-64
2020/12/10 14:02:11;;;;;;;;;;;;;;;;;;5096558;28;19912;-65
2020/12/10 14:04:37;;;;;;;;;;;;;;;;;;5096518;28;19912;-66
2020/12/10 14:07:03;;;;;;;;;;;;;;;;;;5096625;28;20006;-65
2020/12/10 14:09:30;;;;;;;;;;;;;;;;;;5096523;28;19934;-72
2020/12/10 14:11:56;;;;;;;;;;;;;;;;;;5096673;28;20003;-65
2020/12/10 14:14:22;;;;;;;;;;;;;;;;;;5097015;28;19915;-65
2020/12/10 14:16:48;;;;;;;;;;;;;;;;;;5097047;28;19915;-66
2020/12/10 14:19:14;;;;;;;;;;;;;;;;;;5096831;28;19908;-66
2020/12/10 14:21:40;;;;;;;;;;;;;;;;;;5097477;28;19908;-72
2020/12/10 14:24:07;;;;;;;;;;;;;;;;;;5096887;28;19908;-67
2020/12/10 14:26:33;;;;;;;;;;;;;;;;;;5096884;28;20010;-72
2020/12/10 14:28:59;;;;;;;;;;;;;;;;;;5096739;28;19909;-66
2020/12/10 14:31:25;;;;;;;;;;;;;;;;;;5097377;28;19912;-66
2020/12/10 14:33:51;;;;;;;;;;;;;;;;;;5096691;28;19908;-65
2020/12/10 14:36:17;;;;;;;;;;;;;;;;;;5096705;28;19948;-66
2020/12/10 14:38:43;;;;;;;;;;;;;;;;;;5096617;28;19908;-66
2020/12/10 14:41:09;;;;;;;;;;;;;;;;;;5096284;28;19939;-65
2020/12/10 14:43:35;;;;;;;;;;;;;;;;;;5096847;28;20269;-67
2020/12/10 14:46:01;;;;;;;;;;;;;;;;;;5096494;28;19912;-71
2020/12/10 14:48:27;;;;;;;;;;;;;;;;;;5096393;28;19912;-66
2020/12/10 14:50:53;;;;;;;;;;;;;;;;;;5096281;28;19916;-66
2020/12/10 14:53:19;;;;;;;;;;;;;;;;;;5096331;28;20002;-67
2020/12/10 14:55:46;;;;;;;;;;;;;;;;;;5096239;28;19908;-71
2020/12/10 14:58:12;;;;;;;;;;;;;;;;;;5096305;28;19951;-66
2020/12/10 15:00:38;;;;;;;;;;;;;;;;;;5095583;28;19908;-66
2020/12/10 15:03:04;;;;;;;;;;;;;;;;;;5096758;28;19908;-66
2020/12/10 15:05:31;;;;;;;;;;;;;;;;;;5096185;28;19943;-65
2020/12/10 15:07:57;;;;;;;;;;;;;;;;;;5096031;28;20399;-66
2020/12/10 15:10:23;;;;;;;;;;;;;;;;;;5095960;28;19923;-71
2020/12/10 15:12:49;;;;;;;;;;;;;;;;;;5096011;28;19908;-65
2020/12/10 15:15:15;;;;;;;;;;;;;;;;;;5095911;28;19912;-65
2020/12/10 15:17:41;;;;;;;;;;;;;;;;;;5095921;28;19908;-66
2020/12/10 15:20:07;;;;;;;;;;;;;;;;;;5096393;28;20006;-66
2020/12/10 15:22:33;;;;;;;;;;;;;;;;;;5095801;28;19958;-72
2020/12/10 15:24:59;;;;;;;;;;;;;;;;;;5096287;28;19908;-66
2020/12/10 15:27:25;;;;;;;;;;;;;;;;;;5095640;28;19912;-65
2020/12/10 15:29:51;;;;;;;;;;;;;;;;;;5095558;28;20286;-72
2020/12/10 15:32:17;;;;;;;;;;;;;;;;;;5095810;28;19962;-67
2020/12/10 15:34:43;;;;;;;;;;;;;;;;;;5096167;28;19923;-67
2020/12/10 15:37:10;;;;;;;;;;;;;;;;;;5096351;28;20231;-67
2020/12/10 15:39:36;;;;;;;;;;;;;;;;;;5095710;28;19912;-66
2020/12/10 15:42:02;;;;;;;;;;;;;;;;;;5095181;28;19920;-66
2020/12/10 15:44:28;;;;;;;;;;;;;;;;;;5095372;28;19908;-73
2020/12/10 15:46:54;;;;;;;;;;;;;;;;;;5095228;28;19912;-67
2020/12/10 15:49:20;;;;;;;;;;;;;;;;;;5095219;28;19912;-67
2020/12/10 15:51:46;;;;;;;;;;;;;;;;;;5095237;28;19908;-67
2020/12/10 15:54:12;;;;;;;;;;;;;;;;;;5095224;28;19908;-67
2020/12/10 15:56:38;;;;;;;;;;;;;;;;;;5095332;28;19931;-67
2020/12/10 15:59:04;;;;;;;;;;;;;;;;;;5095111;28;20357;-67
2020/12/10 16:01:30;;;;;;;;;;;;;;;;;;5095281;28;20373;-67
2020/12/10 16:03:56;;;;;;;;;;;;;;;;;;5094927;28;20408;-64
2020/12/10 16:06:24;;;;;;;;;;;;;;;;;;5094805;28;19961;-64
2020/12/10 16:08:50;;;;;;;;;;;;;;;;;;5093710;28;19915;-65
2020/12/10 16:11:16;;;;;;;;;;;;;;;;;;5093833;28;19912;-65
2020/12/10 16:13:42;;;;;;;;;;;;;;;;;;5094720;28;19908;-65
2020/12/10 16:16:08;;;;;;;;;;;;;;;;;;5095389;28;19908;-66
2020/12/10 16:18:34;;;;;;;;;;;;;;;;;;5094698;28;19908;-65
2020/12/10 16:21:00;;;;;;;;;;;;;;;;;;5094630;28;19908;-65
2020/12/10 16:23:26;;;;;;;;;;;;;;;;;;5094878;28;20334;-65
2020/12/10 16:25:52;;;;;;;;;;;;;;;;;;5094567;28;20274;-65
2020/12/10 16:28:18;;;;;;;;;;;;;;;;;;5094624;28;19909;-66
2020/12/10 16:30:45;;;;;;;;;;;;;;;;;;5095018;28;20304;-67
2020/12/10 16:33:11;;;;;;;;;;;;;;;;;;5094447;28;20269;-65
2020/12/10 16:35:37;;;;;;;;;;;;;;;;;;5094747;28;20429;-67
2020/12/10 16:38:03;;;;;;;;;;;;;;;;;;5094394;28;20366;-65
2020/12/10 16:40:30;;;;;;;;;;;;;;;;;;5094404;28;19908;-65